Lechfeld, Germany

9:50 PM CEST on July 29, 2016 (GMT +0200)
Lechfeld | | Change Station

Elev 1850 ft 48.15 °N, 10.83 °E | Updated 50 minutes ago

Partly Cloudy
Partly Cloudy
72.7 °F
Feels Like 76 °F
N
0.1
Wind Variable Wind from WSW
Gusts 1.1 mph

Today
High -- | Low -- °F
--% Chance of Precip.
Yesterday
High -- | Low -- °F
Precip. -- in
Pressure 30.01 in
Visibility 6.2 miles
Clouds Few 5000 ft
Heat Index 76 °F
Dew Point 60 °F
Humidity 64%
Rainfall 0.00 in
Snow Depth Not available.
5:48 AM 8:56 PM
Waning Crescent, 19% visible
METAR ETSA 291920Z 22006KT 9999 FEW050 22/13 Q1016 BLU+
Pressure 30.01 in
Visibility 6.2 miles
Clouds Few 5000 ft
Heat Index 76 °F
Dew Point 60 °F
Humidity 64%
Rainfall 0.00 in
Snow Depth Not available.
5:48 AM 8:56 PM
Waning Crescent, 19% visible
METAR ETSA 291920Z 22006KT 9999 FEW050 22/13 Q1016 BLU+

10-Day Weather Forecast

×

Almanac

Astronomy

Jul. 29, 2016 Rise Set
Actual Time
Civil Twilight
Nautical Twilight
Astronomical Twilight
Moon
Length of Visible Light
Length of Day
Tomorrow will be .
, % of the Moon is Illuminated

Today's Extremes

Country Highs Country Lows

Community

WunderPhotos

Upload Photos

1,928,401 photos uploaded!

WunderBlog® & News

Nearby

Air Quality

  Air Quality AQ Index Pollutant
Not available.

Snow Depth

Station Depth Elevation

Earthquake Activity

City Distance Mag. Time & Date
Minimum magnitude displayed is 2.5.

Coastal Water Temperatures

Place Temperature

Stations

Nearby Weather Stations

Station Location Temp. Windchill Dew Point Humidity Wind Precip. Elev Updated Type